createdAt,value
2023-05-20T00:03:14.111Z,50.52
2023-05-20T00:08:16.961Z,50.55
2023-05-20T00:13:21.154Z,50.71
2023-05-20T00:18:24.066Z,50.50
2023-05-20T00:23:26.840Z,50.58
2023-05-20T00:28:31.048Z,50.90
2023-05-20T00:33:35.002Z,51.03
2023-05-20T00:38:37.776Z,51.07
2023-05-20T00:43:42.427Z,51.25
2023-05-20T00:48:45.938Z,51.24
2023-05-20T00:53:48.974Z,51.35
2023-05-20T00:58:53.449Z,51.79
2023-05-20T01:03:56.280Z,51.58
2023-05-20T01:08:59.293Z,52.02
2023-05-20T01:14:09.385Z,52.09
2023-05-20T01:19:28.164Z,51.90
2023-05-20T01:24:33.711Z,52.17
2023-05-20T01:29:36.688Z,52.55
2023-05-20T01:34:41.334Z,52.62
2023-05-20T01:39:46.768Z,52.68
2023-05-20T01:44:49.753Z,52.99
2023-05-20T01:49:54.055Z,52.88
2023-05-20T01:54:58.228Z,53.16
2023-05-20T02:00:01.097Z,53.38
2023-05-20T02:05:04.094Z,53.26
2023-05-20T02:10:09.454Z,53.63
2023-05-20T02:15:12.768Z,53.51
2023-05-20T02:20:17.246Z,53.80
2023-05-20T02:25:21.365Z,53.79
2023-05-20T02:30:24.191Z,53.96
2023-05-20T02:35:27.172Z,54.33
2023-05-20T02:40:31.524Z,54.56
2023-05-20T02:45:34.561Z,54.77
2023-05-20T02:50:40.179Z,54.63
2023-05-20T02:55:47.318Z,55.04
2023-05-20T03:00:50.224Z,55.13
2023-05-20T03:05:53.028Z,54.90
2023-05-20T03:10:57.143Z,54.92
2023-05-20T03:16:01.533Z,55.51
2023-05-20T03:21:04.425Z,55.39
2023-05-20T03:26:08.656Z,55.55
2023-05-20T03:31:11.680Z,55.72
2023-05-20T03:36:14.583Z,55.85
2023-05-20T03:41:18.797Z,56.13
2023-05-20T03:46:21.881Z,56.09
2023-05-20T03:51:24.856Z,56.29
2023-05-20T03:56:30.275Z,56.45
2023-05-20T04:01:33.874Z,56.56
2023-05-20T04:06:36.972Z,56.59
2023-05-20T04:11:41.302Z,56.62
2023-05-20T04:16:45.144Z,56.58
2023-05-20T04:21:48.080Z,56.91
2023-05-20T04:26:52.862Z,57.28
2023-05-20T04:31:58.669Z,56.79
2023-05-20T04:37:01.803Z,57.14
2023-05-20T04:42:06.733Z,57.08
2023-05-20T04:47:09.580Z,57.26
2023-05-20T04:52:14.359Z,57.11
2023-05-20T04:57:20.950Z,57.11
2023-05-20T05:02:23.836Z,57.09
2023-05-20T05:07:26.685Z,57.40
2023-05-20T05:12:30.977Z,57.58
2023-05-20T05:17:34.576Z,57.19
2023-05-20T05:22:39.654Z,57.06
2023-05-20T05:27:45.249Z,57.07
2023-05-20T05:32:48.772Z,57.29
2023-05-20T05:37:51.908Z,57.05
2023-05-20T05:42:56.936Z,57.23
2023-05-20T05:48:00.118Z,56.84
2023-05-20T05:53:03.142Z,56.88
2023-05-20T05:58:08.402Z,57.26
2023-05-20T06:03:11.427Z,57.36
2023-05-20T06:08:14.511Z,57.42
2023-05-20T06:13:19.095Z,57.16
2023-05-20T06:18:22.612Z,57.48
2023-05-20T06:23:28.656Z,57.47
2023-05-20T06:28:36.293Z,57.61
2023-05-20T06:33:39.628Z,57.31
2023-05-20T06:38:45.884Z,56.89
2023-05-20T06:43:53.422Z,56.89
2023-05-20T06:49:15.216Z,56.29
2023-05-20T06:54:18.152Z,56.31
2023-05-20T06:59:23.135Z,56.05
2023-05-20T07:04:26.054Z,55.34
2023-05-20T07:09:29.086Z,54.24
2023-05-20T07:14:33.477Z,53.41
2023-05-20T07:19:37.622Z,53.36
2023-05-20T07:24:40.538Z,52.95
2023-05-20T07:29:45.146Z,52.75
2023-05-20T07:34:47.987Z,51.97
2023-05-20T07:39:50.870Z,52.07
2023-05-20T07:44:55.160Z,51.92
2023-05-20T07:49:58.532Z,51.76
2023-05-20T07:55:01.634Z,53.22
2023-05-20T08:00:06.985Z,53.19
2023-05-20T08:05:19.881Z,53.11
2023-05-20T08:10:23.513Z,51.66
2023-05-20T08:15:28.209Z,51.52
2023-05-20T08:20:32.625Z,51.32
2023-05-20T08:25:36.029Z,51.40
2023-05-20T08:30:41.370Z,51.63
2023-05-20T08:35:44.361Z,51.37
2023-05-20T08:40:47.386Z,51.57
2023-05-20T08:45:52.966Z,51.33
2023-05-20T08:50:59.208Z,51.16
2023-05-20T08:56:03.598Z,52.05
2023-05-20T09:01:09.335Z,52.62
2023-05-20T09:06:17.550Z,52.16
2023-05-20T09:11:21.697Z,52.66
2023-05-20T09:16:26.666Z,52.81
2023-05-20T09:21:31.088Z,51.16
2023-05-20T09:26:34.004Z,50.98
2023-05-20T09:31:38.996Z,52.44
2023-05-20T09:36:44.640Z,52.56
2023-05-20T09:41:54.954Z,52.37
2023-05-20T09:47:01.026Z,51.51
2023-05-20T09:52:05.230Z,51.34
2023-05-20T09:57:08.626Z,51.97
2023-05-20T10:02:12.874Z,51.78
2023-05-20T10:07:44.018Z,51.20
2023-05-20T10:12:56.234Z,52.15
2023-05-20T10:18:10.865Z,52.07
2023-05-20T10:23:22.386Z,53.23
2023-05-20T10:28:32.974Z,53.14
2023-05-20T10:33:44.296Z,53.80
2023-05-20T10:38:53.350Z,53.59
2023-05-20T10:44:04.083Z,53.78
2023-05-20T10:49:20.558Z,52.94
2023-05-20T10:54:25.530Z,52.50
2023-05-20T10:59:28.522Z,52.77
2023-05-20T11:04:33.713Z,53.16
2023-05-20T11:09:37.124Z,53.58
2023-05-20T11:14:40.114Z,53.91
2023-05-20T11:19:44.486Z,54.55
2023-05-20T11:24:47.639Z,54.20
2023-05-20T11:29:51.716Z,54.32
2023-05-20T11:34:55.913Z,55.14
2023-05-20T11:40:08.979Z,55.30
2023-05-20T11:45:14.665Z,53.35
2023-05-20T11:50:20.023Z,52.94
2023-05-20T11:55:22.838Z,52.91
2023-05-20T12:00:27.606Z,53.14
2023-05-20T12:05:33.693Z,54.29
2023-05-20T12:10:37.517Z,53.86
2023-05-20T12:15:41.317Z,54.16
2023-05-20T12:20:45.640Z,53.33
2023-05-20T12:25:49.978Z,52.69
2023-05-20T12:30:52.972Z,53.95
2023-05-20T12:35:57.341Z,53.85
2023-05-20T12:41:00.330Z,54.22
2023-05-20T12:46:03.704Z,54.49
2023-05-20T12:51:08.038Z,53.99
2023-05-20T12:56:11.134Z,54.93
2023-05-20T13:01:14.024Z,54.65
2023-05-20T13:06:18.226Z,55.70
2023-05-20T13:11:21.682Z,55.67
2023-05-20T13:16:24.815Z,56.23
2023-05-20T13:21:29.135Z,56.28
2023-05-20T13:26:31.992Z,56.63
2023-05-20T13:31:35.021Z,57.11
2023-05-20T13:36:39.338Z,56.93
2023-05-20T13:41:42.413Z,56.05
2023-05-20T13:46:45.542Z,56.48
2023-05-20T13:51:49.898Z,56.97
2023-05-20T14:02:39.026Z,57.67
2023-05-20T14:07:41.863Z,57.06
2023-05-20T14:12:47.969Z,56.96
2023-05-20T14:17:52.852Z,57.33
2023-05-20T14:22:55.894Z,56.76
2023-05-20T14:34:46.331Z,56.87
2023-05-20T14:39:49.184Z,56.34
2023-05-20T14:44:52.085Z,55.80
2023-05-20T14:49:56.799Z,55.24
2023-05-20T14:54:59.618Z,56.31
2023-05-20T15:00:02.493Z,56.03
2023-05-20T15:05:07.635Z,56.76
2023-05-20T15:10:10.939Z,56.00
2023-05-20T15:15:14.037Z,55.79
2023-05-20T15:20:18.344Z,56.04
2023-05-20T15:25:21.289Z,56.19
2023-05-20T15:30:24.255Z,55.93
2023-05-20T15:35:28.648Z,55.69
2023-05-20T15:40:31.981Z,55.97
2023-05-20T15:45:35.148Z,55.93
2023-05-20T15:50:39.840Z,55.05
2023-05-20T15:55:43.021Z,55.19
2023-05-20T16:00:47.066Z,54.92
2023-05-20T16:05:51.420Z,54.77
2023-05-20T16:10:54.456Z,54.98
2023-05-20T16:15:57.813Z,55.24
2023-05-20T16:21:02.332Z,54.70
2023-05-20T16:26:05.282Z,55.07
2023-05-20T16:31:08.213Z,55.04
2023-05-20T16:36:12.842Z,54.87
2023-05-20T16:41:16.398Z,54.71
2023-05-20T16:46:19.642Z,55.12
2023-05-20T16:51:24.235Z,54.55
2023-05-20T16:56:27.474Z,54.57
2023-05-20T17:01:30.474Z,54.53
2023-05-20T17:06:35.141Z,55.44
2023-05-20T17:11:38.141Z,55.15
2023-05-20T17:16:41.234Z,55.39
2023-05-20T17:21:45.677Z,54.67
2023-05-20T17:26:48.679Z,53.81
2023-05-20T17:31:51.524Z,53.66
2023-05-20T17:36:57.106Z,53.49
2023-05-20T17:42:00.369Z,53.22
2023-05-20T17:47:03.255Z,53.62
2023-05-20T17:52:08.621Z,52.63
2023-05-20T17:57:11.417Z,53.27
2023-05-20T18:02:24.794Z,53.29
2023-05-20T18:07:37.338Z,52.74
2023-05-20T18:12:40.172Z,52.62
2023-05-20T18:17:43.070Z,53.05
2023-05-20T18:22:50.529Z,53.33
2023-05-20T18:27:53.747Z,53.70
2023-05-20T18:33:24.778Z,53.45
2023-05-20T18:38:29.178Z,53.27
2023-05-20T18:43:32.146Z,52.96
2023-05-20T18:48:35.287Z,53.09
2023-05-20T18:53:42.691Z,52.93
2023-05-20T18:58:48.106Z,53.28
2023-05-20T19:03:51.330Z,52.95
2023-05-20T19:08:55.532Z,53.08
2023-05-20T19:13:58.903Z,53.07
2023-05-20T19:19:01.746Z,52.80
2023-05-20T19:24:06.587Z,52.87
2023-05-20T19:29:09.620Z,53.09
2023-05-20T19:34:12.438Z,54.17
2023-05-20T19:39:17.316Z,53.22
2023-05-20T19:44:20.481Z,53.18
2023-05-20T19:49:23.316Z,53.30
2023-05-20T19:54:28.011Z,53.20
2023-05-20T19:59:30.980Z,52.88
2023-05-20T20:04:33.986Z,53.07
2023-05-20T20:09:38.302Z,53.19
2023-05-20T20:14:41.181Z,53.04
2023-05-20T20:19:46.124Z,52.74
2023-05-20T20:24:50.825Z,53.01
2023-05-20T20:29:53.764Z,53.14
2023-05-20T20:34:57.875Z,52.99
2023-05-20T20:40:13.127Z,52.88
2023-05-20T20:45:16.869Z,53.11
2023-05-20T20:50:19.718Z,53.17
2023-05-20T20:55:24.312Z,52.94
2023-05-20T21:00:27.730Z,52.99
2023-05-20T21:05:30.709Z,53.14
2023-05-20T21:10:36.958Z,53.08
2023-05-20T21:15:40.077Z,53.25
2023-05-20T21:20:43.281Z,53.26
2023-05-20T21:25:47.549Z,53.24
2023-05-20T21:30:50.702Z,53.10
2023-05-20T21:35:53.604Z,53.10
2023-05-20T21:40:58.552Z,53.03
2023-05-20T21:46:01.592Z,53.27
2023-05-20T21:51:04.791Z,52.78
2023-05-20T21:56:09.131Z,52.89
2023-05-20T22:01:12.047Z,52.83
2023-05-20T22:06:15.768Z,53.09
2023-05-20T22:11:21.578Z,53.15
2023-05-20T22:16:24.786Z,53.02
2023-05-20T22:21:28.756Z,53.38
2023-05-20T22:26:34.412Z,53.20
2023-05-20T22:31:37.836Z,53.22
2023-05-20T22:36:41.602Z,53.10
2023-05-20T22:41:45.820Z,53.06
2023-05-20T22:46:48.890Z,53.03
2023-05-20T22:51:53.021Z,53.04
2023-05-20T22:56:59.114Z,53.18
2023-05-20T23:02:02.424Z,52.92
2023-05-20T23:07:06.437Z,53.18
2023-05-20T23:12:10.717Z,53.17
2023-05-20T23:17:13.505Z,53.05
2023-05-20T23:22:16.331Z,52.98
2023-05-20T23:27:20.464Z,53.12
2023-05-20T23:32:23.233Z,53.07
2023-05-20T23:37:26.139Z,53.17
2023-05-20T23:42:31.598Z,53.21
2023-05-20T23:47:36.266Z,53.01
2023-05-20T23:52:40.195Z,53.09
2023-05-20T23:57:44.464Z,53.23
